createdAt,value
2022-11-03T08:40:40.844Z,76.68
2022-11-03T08:41:42.182Z,75.61
2022-11-03T08:48:28.835Z,76.69
2022-11-03T08:49:30.231Z,74.86
2022-11-03T08:50:31.667Z,73.56
2022-11-03T08:51:33.351Z,72.15
2022-11-03T08:52:34.727Z,72.15
2022-11-03T08:53:36.309Z,72.61
2022-11-03T08:54:37.677Z,72.95
2022-11-03T08:55:39.198Z,72.63
2022-11-03T08:56:40.511Z,73.77
2022-11-03T08:57:41.882Z,73.69
2022-11-03T08:58:44.264Z,74.10
2022-11-03T08:59:46.557Z,74.32
2022-11-03T09:00:48.830Z,74.56
2022-11-03T09:01:50.737Z,73.71
2022-11-03T09:02:52.288Z,72.54
2022-11-03T09:03:53.876Z,72.02
2022-11-03T09:04:55.334Z,71.23
2022-11-03T09:11:05.377Z,70.31
2022-11-03T09:12:06.828Z,70.15
2022-11-03T09:13:08.477Z,70.43
2022-11-03T09:14:09.995Z,71.64
2022-11-03T09:15:11.757Z,71.51
2022-11-03T09:16:13.107Z,71.43
2022-11-03T09:17:14.463Z,71.30
2022-11-03T09:18:16.136Z,70.13
2022-11-03T09:19:17.496Z,68.74
2022-11-03T09:20:18.972Z,68.15
2022-11-03T09:21:20.531Z,67.80
2022-11-03T09:22:22.594Z,68.66
2022-11-03T09:23:23.948Z,67.79
2022-11-03T09:24:30.145Z,68.01
2022-11-03T09:25:31.557Z,68.18
2022-11-03T09:26:32.888Z,68.42
2022-11-03T09:27:34.258Z,69.16
2022-11-03T09:28:35.691Z,69.62
2022-11-03T09:47:47.153Z,76.68
2022-11-03T09:48:48.643Z,77.55
2022-11-03T09:49:50.462Z,77.61
2022-11-03T09:50:54.514Z,77.27
2022-11-03T09:51:58.882Z,77.96
2022-11-03T09:53:00.816Z,77.47
2022-11-03T09:54:04.849Z,78.15
2022-11-03T09:55:15.118Z,78.56
2022-11-03T09:56:19.437Z,77.97
2022-11-03T09:57:20.936Z,78.31
2022-11-03T09:58:22.399Z,77.88
2022-11-03T09:59:23.819Z,78.05
